createdAt,value
2022-12-09T00:06:27.752Z,81.58
2022-12-09T00:21:27.040Z,81.99
2022-12-09T00:36:21.825Z,82.87
2022-12-09T00:51:11.361Z,83.41
2022-12-09T01:06:01.303Z,82.48
2022-12-09T01:20:56.065Z,83.76
2022-12-09T01:35:48.256Z,82.76
2022-12-09T01:50:37.858Z,83.23
2022-12-09T02:05:28.501Z,83.56
2022-12-09T02:20:20.048Z,83.66
2022-12-09T02:35:15.541Z,82.89
2022-12-09T02:50:09.190Z,81.72
2022-12-09T03:05:12.715Z,81.04
2022-12-09T03:20:08.356Z,80.48
2022-12-09T03:34:57.934Z,79.47
2022-12-09T03:49:48.713Z,79.66
2022-12-09T04:04:40.089Z,79.28
2022-12-09T04:19:29.616Z,79.85
2022-12-09T04:34:20.736Z,79.04
2022-12-09T04:49:10.124Z,78.28
2022-12-09T05:04:02.251Z,79.65
2022-12-09T05:19:03.416Z,80.84
2022-12-09T05:33:53.279Z,81.17
2022-12-09T05:48:44.147Z,81.47
2022-12-09T06:03:33.153Z,82.20
2022-12-09T06:18:24.430Z,81.36
2022-12-09T06:33:29.451Z,81.10
2022-12-09T06:48:04.144Z,81.02
2022-12-09T07:02:54.778Z,80.97
2022-12-09T07:17:43.916Z,80.61
2022-12-09T07:32:33.860Z,80.65
2022-12-09T07:47:24.018Z,80.43
2022-12-09T08:02:13.022Z,80.69
2022-12-09T08:17:02.714Z,80.92
2022-12-09T08:31:53.050Z,80.21
2022-12-09T08:46:44.400Z,79.92
2022-12-09T09:01:33.962Z,80.01
2022-12-09T09:16:25.756Z,79.68
2022-12-09T09:31:15.306Z,79.67
2022-12-09T09:46:06.331Z,80.44
2022-12-09T10:01:07.500Z,79.67
2022-12-09T10:16:27.261Z,79.26
2022-12-09T10:31:22.782Z,79.02
2022-12-09T10:46:18.735Z,78.75
2022-12-09T11:01:12.599Z,78.63
2022-12-09T11:16:05.296Z,75.33
2022-12-09T11:45:54.836Z,73.05
2022-12-09T12:00:57.015Z,71.43
2022-12-09T12:15:54.122Z,71.33
2022-12-09T12:31:22.260Z,70.66
2022-12-09T12:46:37.840Z,69.65
2022-12-09T13:01:35.182Z,69.76
2022-12-09T13:16:30.396Z,70.03
2022-12-09T13:31:26.210Z,70.53
2022-12-09T13:46:21.878Z,71.03
2022-12-09T14:01:13.503Z,71.77
2022-12-09T14:16:27.647Z,71.98
2022-12-09T14:31:41.805Z,72.87
2022-12-09T15:01:54.859Z,74.23
2022-12-09T15:16:50.702Z,75.08
2022-12-09T15:31:39.149Z,75.37
2022-12-09T15:46:30.059Z,75.58
2022-12-09T16:01:22.446Z,76.46
2022-12-09T16:16:24.862Z,76.76
2022-12-09T16:31:18.051Z,77.53
2022-12-09T16:46:14.540Z,77.39
2022-12-09T17:01:07.624Z,77.91
2022-12-09T17:15:58.925Z,78.26
2022-12-09T17:30:49.789Z,78.50
2022-12-09T17:45:42.402Z,78.38
2022-12-09T18:00:34.151Z,78.25
2022-12-09T18:15:26.307Z,78.54
2022-12-09T18:30:15.969Z,78.90
2022-12-09T18:45:06.919Z,79.05
2022-12-09T18:59:57.520Z,78.82
2022-12-09T19:14:47.476Z,78.93
2022-12-09T19:29:37.781Z,79.12
2022-12-09T19:59:17.895Z,79.38
2022-12-09T20:14:07.904Z,79.03
2022-12-09T20:28:57.711Z,79.33
2022-12-09T20:58:37.651Z,79.34
2022-12-09T21:28:18.249Z,79.46
2022-12-09T21:43:08.690Z,80.23
2022-12-09T21:57:59.439Z,80.74
2022-12-09T22:12:49.161Z,80.63
2022-12-09T22:27:39.372Z,81.17
2022-12-09T22:42:29.360Z,81.43
2022-12-09T22:57:19.502Z,82.78
2022-12-09T23:12:08.862Z,83.82
2022-12-09T23:26:58.997Z,83.58
2022-12-09T23:41:48.318Z,83.27
2022-12-09T23:56:38.285Z,83.53
